createdAt,value
2018-02-02T00:00:20.685Z,5.20
2018-02-02T00:02:50.611Z,5.43
2018-02-02T00:05:20.029Z,4.80
2018-02-02T00:07:49.352Z,4.73
2018-02-02T00:10:19.994Z,6.43
2018-02-02T00:12:49.365Z,6.17
2018-02-02T00:15:18.878Z,5.10
2018-02-02T00:17:48.546Z,5.23
2018-02-02T00:20:18.009Z,5.90
2018-02-02T00:22:47.468Z,5.17
2018-02-02T00:25:16.851Z,5.57
2018-02-02T00:27:46.526Z,5.70
2018-02-02T00:30:16.033Z,10.63
2018-02-02T00:32:45.442Z,6.23
2018-02-02T00:35:14.882Z,6.40
2018-02-02T00:37:44.340Z,6.10
2018-02-02T00:40:14.272Z,6.57
2018-02-02T00:42:43.861Z,5.93
2018-02-02T00:45:14.206Z,6.60
2018-02-02T00:47:43.641Z,6.33
2018-02-02T00:50:13.318Z,7.57
2018-02-02T00:52:42.578Z,6.60
2018-02-02T00:55:11.977Z,6.30
2018-02-02T00:57:41.370Z,6.17
2018-02-02T01:00:10.939Z,6.97
2018-02-02T01:02:40.956Z,7.97
2018-02-02T01:05:10.963Z,7.67
2018-02-02T01:07:40.628Z,7.80
2018-02-02T01:10:10.129Z,6.90
2018-02-02T01:12:39.649Z,7.70
2018-02-02T01:15:09.145Z,7.77
2018-02-02T01:17:38.738Z,8.27
2018-02-02T01:20:08.329Z,7.67
2018-02-02T01:22:38.049Z,6.93
2018-02-02T01:25:07.938Z,7.63
2018-02-02T01:27:37.364Z,7.07
2018-02-02T01:30:07.298Z,7.60
2018-02-02T01:32:36.952Z,5.80
2018-02-02T01:35:06.592Z,7.00
2018-02-02T01:37:36.027Z,7.10
2018-02-02T01:40:15.684Z,6.23
2018-02-02T01:42:44.985Z,7.10
2018-02-02T01:45:14.395Z,6.73
2018-02-02T01:47:43.771Z,7.80
2018-02-02T01:50:13.483Z,6.83
2018-02-02T01:52:43.197Z,8.10
2018-02-02T01:55:12.938Z,6.73
2018-02-02T01:57:42.396Z,6.40
2018-02-02T02:00:12.332Z,6.97
2018-02-02T02:02:42.194Z,7.57
2018-02-02T02:05:11.473Z,7.90
2018-02-02T02:07:40.981Z,6.63
2018-02-02T02:10:10.297Z,7.67
2018-02-02T02:12:39.582Z,6.87
2018-02-02T02:15:08.976Z,6.77
2018-02-02T02:17:39.692Z,7.47
2018-02-02T02:20:09.130Z,6.57
2018-02-02T02:22:39.053Z,7.73
2018-02-02T02:25:08.643Z,7.03
2018-02-02T02:27:38.674Z,5.90
2018-02-02T02:30:08.887Z,5.93
2018-02-02T02:32:38.637Z,6.03
2018-02-02T02:35:07.940Z,6.00
2018-02-02T02:37:38.062Z,6.13
2018-02-02T02:40:07.495Z,5.80
2018-02-02T02:42:36.930Z,6.57
2018-02-02T02:45:07.156Z,6.60
2018-02-02T02:47:37.038Z,6.63
2018-02-02T02:50:06.435Z,6.30
2018-02-02T02:52:36.010Z,5.33
2018-02-02T02:55:05.739Z,5.27
2018-02-02T02:57:35.139Z,4.77
2018-02-02T03:00:04.569Z,5.60
2018-02-02T03:02:33.905Z,5.83
2018-02-02T03:05:03.206Z,6.03
2018-02-02T03:07:32.782Z,5.53
2018-02-02T03:10:02.070Z,5.67
2018-02-02T03:12:31.817Z,6.43
2018-02-02T03:15:01.239Z,6.00
2018-02-02T03:17:30.689Z,5.30
2018-02-02T03:20:01.078Z,5.57
2018-02-02T03:22:30.838Z,5.43
2018-02-02T03:25:00.444Z,5.73
2018-02-02T03:27:29.734Z,5.90
2018-02-02T03:29:59.653Z,6.70
2018-02-02T03:32:29.286Z,6.47
2018-02-02T03:34:58.566Z,6.80
2018-02-02T03:37:28.294Z,6.13
2018-02-02T03:39:57.917Z,7.50
2018-02-02T03:42:27.525Z,7.77
2018-02-02T03:44:57.168Z,7.97
2018-02-02T03:47:26.520Z,6.60
2018-02-02T03:49:56.102Z,6.67
2018-02-02T03:52:25.426Z,7.43
2018-02-02T03:54:54.753Z,7.23
2018-02-02T03:57:24.231Z,6.80
2018-02-02T03:59:53.843Z,7.10
2018-02-02T04:02:23.754Z,7.50
2018-02-02T04:04:53.603Z,6.93
2018-02-02T04:07:22.987Z,7.40
2018-02-02T04:09:52.856Z,8.07
2018-02-02T04:12:22.428Z,8.40
2018-02-02T04:14:51.849Z,7.10
2018-02-02T04:17:21.444Z,8.03
2018-02-02T04:19:51.372Z,6.90
2018-02-02T04:22:20.699Z,6.97
2018-02-02T04:24:50.199Z,8.17
2018-02-02T04:27:19.517Z,7.70
2018-02-02T04:29:48.801Z,7.43
2018-02-02T04:32:18.395Z,8.00
2018-02-02T04:34:49.279Z,8.30
2018-02-02T04:37:18.907Z,8.33
2018-02-02T04:39:48.204Z,8.00
2018-02-02T04:42:17.668Z,7.60
2018-02-02T04:44:47.279Z,9.13
2018-02-02T04:47:16.680Z,7.57
2018-02-02T04:49:45.969Z,8.87
2018-02-02T04:52:15.616Z,9.40
2018-02-02T04:54:45.093Z,9.10
2018-02-02T04:57:14.670Z,8.10
2018-02-02T04:59:44.392Z,8.17
2018-02-02T05:02:13.751Z,8.10
2018-02-02T05:04:43.372Z,8.60
2018-02-02T05:07:12.737Z,9.23
2018-02-02T05:09:42.673Z,8.33
2018-02-02T05:12:11.993Z,8.37
2018-02-02T05:14:41.305Z,8.90
2018-02-02T05:17:10.767Z,8.80
2018-02-02T05:19:41.291Z,8.77
2018-02-02T05:22:11.379Z,10.10
2018-02-02T05:24:40.909Z,9.40
2018-02-02T05:27:10.672Z,8.87
2018-02-02T05:29:39.957Z,8.47
2018-02-02T05:32:09.357Z,7.80
2018-02-02T05:34:38.899Z,8.70
2018-02-02T05:37:08.410Z,7.40
2018-02-02T05:39:37.638Z,8.57
2018-02-02T05:42:07.813Z,7.93
2018-02-02T05:44:37.324Z,8.43
2018-02-02T05:47:06.800Z,9.50
2018-02-02T05:49:36.430Z,10.43
2018-02-02T05:52:05.789Z,9.37
2018-02-02T05:54:35.645Z,8.20
2018-02-02T05:57:05.479Z,8.90
2018-02-02T05:59:34.978Z,10.00
2018-02-02T06:02:04.567Z,9.50
2018-02-02T06:04:34.192Z,9.03
2018-02-02T06:07:03.890Z,8.67
2018-02-02T06:09:33.627Z,9.03
2018-02-02T06:12:02.883Z,9.57
2018-02-02T06:14:32.337Z,8.77
2018-02-02T06:17:02.000Z,10.40
2018-02-02T06:19:39.008Z,8.43
2018-02-02T06:22:09.147Z,8.63
2018-02-02T06:24:38.845Z,10.07
2018-02-02T06:27:08.465Z,8.43
2018-02-02T06:29:38.231Z,8.67
2018-02-02T06:32:07.849Z,9.03
2018-02-02T06:34:37.502Z,9.33
2018-02-02T06:37:07.331Z,8.50
2018-02-02T06:39:36.845Z,8.17
2018-02-02T06:42:06.523Z,8.77
2018-02-02T06:44:35.863Z,13.37
2018-02-02T06:47:05.169Z,9.67
2018-02-02T06:49:34.465Z,10.07
2018-02-02T06:52:03.946Z,8.23
2018-02-02T06:54:33.575Z,8.77
2018-02-02T06:57:03.000Z,9.07
2018-02-02T06:59:32.395Z,9.60
2018-02-02T07:02:01.866Z,9.90
2018-02-02T07:04:31.185Z,10.47
2018-02-02T07:07:00.989Z,8.30
2018-02-02T07:09:30.958Z,9.50
2018-02-02T07:12:00.331Z,11.00
2018-02-02T07:14:30.705Z,9.23
2018-02-02T07:17:00.965Z,10.20
2018-02-02T07:19:30.772Z,8.73
2018-02-02T07:22:00.102Z,9.03
2018-02-02T07:24:30.009Z,10.33
2018-02-02T07:26:59.925Z,9.33
2018-02-02T07:29:29.838Z,9.10
2018-02-02T07:31:59.765Z,10.70
2018-02-02T07:34:29.404Z,9.50
2018-02-02T07:36:58.720Z,10.30
2018-02-02T07:39:28.349Z,9.60
2018-02-02T07:41:57.817Z,9.40
2018-02-02T07:44:27.728Z,9.33
2018-02-02T07:46:57.692Z,9.57
2018-02-02T07:49:27.177Z,9.83
2018-02-02T07:51:56.660Z,9.77
2018-02-02T07:54:25.976Z,9.97
2018-02-02T07:56:55.274Z,9.57
2018-02-02T07:59:24.881Z,10.43
2018-02-02T08:01:54.208Z,9.00
2018-02-02T08:04:23.526Z,9.13
2018-02-02T08:06:52.805Z,8.47
2018-02-02T08:09:22.222Z,8.40
2018-02-02T08:11:52.290Z,15.30
2018-02-02T08:14:21.738Z,10.63
2018-02-02T08:16:51.244Z,9.60
2018-02-02T08:19:20.584Z,9.10
2018-02-02T08:21:50.538Z,8.13
2018-02-02T08:24:20.478Z,10.07
2018-02-02T08:26:49.794Z,9.83
2018-02-02T08:29:19.574Z,9.30
2018-02-02T08:31:50.294Z,9.50
2018-02-02T08:34:19.633Z,9.33
2018-02-02T08:36:50.204Z,9.50
2018-02-02T08:39:20.431Z,8.20
2018-02-02T08:41:49.694Z,10.17
2018-02-02T08:44:19.135Z,9.27
2018-02-02T08:46:48.431Z,8.97
2018-02-02T08:49:17.999Z,8.50
2018-02-02T08:51:48.091Z,7.73
2018-02-02T08:54:17.676Z,8.57
2018-02-02T08:56:47.254Z,6.90
2018-02-02T08:59:17.290Z,6.90
2018-02-02T09:01:52.027Z,8.27
2018-02-02T09:04:21.372Z,7.33
2018-02-02T09:06:51.501Z,6.97
2018-02-02T09:09:21.597Z,7.43
2018-02-02T09:11:50.904Z,6.73
2018-02-02T09:14:20.515Z,6.50
2018-02-02T09:16:49.986Z,6.07
2018-02-02T09:19:19.308Z,7.57
2018-02-02T09:21:54.147Z,5.63
2018-02-02T09:24:24.845Z,6.03
2018-02-02T09:26:54.774Z,6.13
2018-02-02T09:29:24.605Z,6.17
2018-02-02T09:31:54.420Z,6.03
2018-02-02T09:34:24.090Z,6.53
2018-02-02T09:36:54.517Z,5.03
2018-02-02T09:39:24.611Z,6.20
2018-02-02T09:41:54.354Z,5.37
2018-02-02T09:44:25.185Z,5.10
2018-02-02T09:46:54.570Z,4.90
2018-02-02T09:49:24.426Z,5.07
2018-02-02T09:51:54.285Z,5.00
2018-02-02T09:54:23.844Z,6.00
2018-02-02T09:56:53.752Z,5.03
2018-02-02T09:59:23.824Z,5.40
2018-02-02T10:01:53.353Z,4.77
2018-02-02T10:04:23.393Z,5.13
2018-02-02T10:06:53.254Z,5.13
2018-02-02T10:09:23.075Z,4.80
2018-02-02T10:11:52.705Z,5.37
2018-02-02T10:14:21.992Z,4.97
2018-02-02T10:16:51.424Z,5.10
2018-02-02T10:19:20.680Z,4.47
2018-02-02T10:21:51.882Z,5.00
2018-02-02T10:24:21.137Z,5.20
2018-02-02T10:26:51.340Z,4.00
2018-02-02T10:29:21.377Z,4.40
2018-02-02T10:31:51.590Z,4.80
2018-02-02T10:34:21.348Z,4.13
2018-02-02T10:36:51.458Z,4.83
2018-02-02T10:39:30.518Z,3.90
2018-02-02T10:42:00.151Z,4.13
2018-02-02T10:44:29.969Z,3.63
2018-02-02T10:47:00.371Z,4.13
2018-02-02T10:49:30.001Z,4.03
2018-02-02T10:52:00.252Z,3.77
2018-02-02T10:54:30.278Z,3.90
2018-02-02T10:57:01.309Z,4.50
2018-02-02T10:59:31.218Z,4.53
2018-02-02T11:02:18.892Z,4.60
2018-02-02T11:04:50.480Z,4.70
2018-02-02T11:07:20.120Z,4.63
2018-02-02T11:09:49.893Z,4.20
2018-02-02T11:12:20.603Z,4.57
2018-02-02T11:14:49.981Z,4.87
2018-02-02T11:17:19.574Z,5.43
2018-02-02T11:19:50.775Z,4.73
2018-02-02T11:22:20.201Z,5.67
2018-02-02T11:24:50.628Z,5.87
2018-02-02T11:27:19.940Z,3.97
2018-02-02T11:29:49.521Z,5.40
2018-02-02T11:32:18.832Z,5.20
2018-02-02T11:34:48.462Z,5.57
2018-02-02T11:37:17.897Z,5.10
2018-02-02T11:39:47.830Z,5.17
2018-02-02T11:42:17.425Z,5.93
2018-02-02T11:44:47.179Z,5.80
2018-02-02T11:47:16.460Z,4.57
2018-02-02T11:49:45.772Z,5.20
2018-02-02T11:52:15.587Z,5.63
2018-02-02T11:54:45.146Z,5.70
2018-02-02T11:57:14.399Z,5.73
2018-02-02T11:59:43.869Z,5.93
2018-02-02T12:02:13.411Z,7.37
2018-02-02T12:04:43.013Z,5.60
2018-02-02T12:07:13.023Z,6.27
2018-02-02T12:09:42.870Z,5.67
2018-02-02T12:12:12.672Z,6.27
2018-02-02T12:14:42.155Z,7.47
2018-02-02T12:17:12.127Z,6.37
2018-02-02T12:19:41.780Z,10.20
2018-02-02T12:35:45.102Z,4.67
2018-02-02T12:38:14.734Z,5.23
2018-02-02T12:40:44.343Z,5.20
2018-02-02T12:43:13.798Z,6.10
2018-02-02T12:45:43.253Z,5.47
2018-02-02T12:48:14.611Z,5.10
2018-02-02T12:50:55.706Z,4.47
2018-02-02T12:53:25.433Z,4.90
2018-02-02T12:55:54.833Z,5.00
2018-02-02T12:58:24.778Z,6.43
2018-02-02T13:00:54.256Z,5.13
2018-02-02T13:03:24.077Z,5.97
2018-02-02T13:05:53.732Z,5.80
2018-02-02T13:08:23.059Z,4.87
2018-02-02T13:10:52.713Z,4.90
2018-02-02T13:13:22.225Z,4.67
2018-02-02T13:15:51.533Z,4.23
2018-02-02T13:18:21.036Z,4.40
2018-02-02T13:20:51.173Z,4.30
2018-02-02T13:23:20.482Z,4.17
2018-02-02T13:25:49.759Z,3.63
2018-02-02T13:28:19.254Z,4.60
2018-02-02T13:30:48.677Z,3.00
2018-02-02T13:33:18.172Z,3.73
2018-02-02T13:35:48.478Z,3.67
2018-02-02T13:38:22.781Z,3.63
2018-02-02T13:40:53.167Z,4.10
2018-02-02T13:43:23.103Z,3.80
2018-02-02T13:45:52.560Z,3.30
2018-02-02T13:48:22.490Z,3.13
2018-02-02T13:50:52.124Z,3.07
2018-02-02T13:53:21.570Z,3.03
2018-02-02T13:55:51.142Z,3.90
2018-02-02T13:58:20.753Z,3.20
2018-02-02T14:00:50.082Z,3.63
2018-02-02T14:03:19.405Z,3.77
2018-02-02T14:05:48.745Z,3.67
2018-02-02T14:08:18.400Z,3.40
2018-02-02T14:10:47.899Z,3.20
2018-02-02T14:13:17.239Z,3.20
2018-02-02T14:15:46.742Z,3.53
2018-02-02T14:18:16.015Z,3.53
2018-02-02T14:20:45.494Z,2.90
2018-02-02T14:23:15.237Z,3.13
2018-02-02T14:25:45.266Z,2.90
2018-02-02T14:28:14.542Z,3.20
2018-02-02T14:30:44.465Z,3.23
2018-02-02T14:33:14.276Z,3.00
2018-02-02T14:35:43.735Z,8.60
2018-02-02T14:38:13.021Z,3.40
2018-02-02T14:40:42.609Z,2.80
2018-02-02T14:43:12.182Z,3.50
2018-02-02T14:45:42.135Z,3.70
2018-02-02T14:48:11.587Z,3.70
2018-02-02T14:50:40.885Z,3.30
2018-02-02T14:53:10.849Z,2.43
2018-02-02T14:55:40.153Z,2.93
2018-02-02T14:58:09.490Z,2.90
2018-02-02T15:00:39.133Z,3.70
2018-02-02T15:03:08.373Z,3.20
2018-02-02T15:05:38.070Z,3.17
2018-02-02T15:08:07.889Z,2.67
2018-02-02T15:10:39.360Z,2.97
2018-02-02T15:13:09.287Z,2.90
2018-02-02T15:15:40.501Z,3.00
2018-02-02T15:18:10.333Z,3.00
2018-02-02T15:20:40.157Z,3.00
2018-02-02T15:23:16.209Z,2.60
2018-02-02T15:25:45.708Z,3.00
2018-02-02T15:28:15.827Z,3.37
2018-02-02T15:30:45.756Z,2.80
2018-02-02T15:33:15.245Z,2.77
2018-02-02T15:35:45.204Z,3.17
2018-02-02T15:38:14.668Z,3.00
2018-02-02T15:40:44.974Z,3.17
2018-02-02T15:43:14.783Z,3.70
2018-02-02T15:45:44.439Z,3.67
2018-02-02T15:48:13.736Z,3.53
2018-02-02T15:50:43.250Z,3.30
2018-02-02T15:53:13.089Z,2.80
2018-02-02T15:55:42.429Z,3.20
2018-02-02T15:58:12.083Z,2.70
2018-02-02T16:00:42.124Z,3.57
2018-02-02T16:03:11.626Z,3.20
2018-02-02T16:05:41.169Z,2.77
2018-02-02T16:08:10.521Z,3.60
2018-02-02T16:10:39.941Z,3.10
2018-02-02T16:13:09.201Z,3.87
2018-02-02T16:15:39.085Z,3.67
2018-02-02T16:18:09.134Z,4.03
2018-02-02T16:20:39.404Z,3.37
2018-02-02T16:23:08.922Z,3.57
2018-02-02T16:25:38.449Z,3.97
2018-02-02T16:28:07.879Z,4.00
2018-02-02T16:30:37.621Z,3.90
2018-02-02T16:33:07.549Z,3.63
2018-02-02T16:35:37.179Z,3.40
2018-02-02T16:38:06.705Z,3.20
2018-02-02T16:40:36.205Z,3.17
2018-02-02T16:43:05.722Z,3.37
2018-02-02T16:45:35.504Z,5.17
2018-02-02T16:48:05.443Z,3.07
2018-02-02T16:50:34.900Z,3.93
2018-02-02T16:53:05.008Z,3.70
2018-02-02T16:55:34.627Z,3.67
2018-02-02T16:58:04.092Z,3.37
2018-02-02T17:00:33.483Z,3.67
2018-02-02T17:03:03.150Z,4.83
2018-02-02T17:05:32.866Z,4.17
2018-02-02T17:08:02.415Z,4.40
2018-02-02T17:10:33.473Z,3.97
2018-02-02T17:13:04.064Z,3.97
2018-02-02T17:15:33.444Z,3.83
2018-02-02T17:18:03.500Z,3.13
2018-02-02T17:20:33.397Z,4.00
2018-02-02T17:23:03.972Z,3.60
2018-02-02T17:25:34.062Z,3.30
2018-02-02T17:28:03.406Z,4.00
2018-02-02T17:30:33.678Z,3.30
2018-02-02T17:33:02.943Z,3.13
2018-02-02T17:35:32.187Z,4.00
2018-02-02T17:38:02.078Z,3.73
2018-02-02T17:40:32.032Z,3.60
2018-02-02T17:43:02.463Z,3.50
2018-02-02T17:45:32.726Z,4.40
2018-02-02T17:48:02.546Z,3.90
2018-02-02T17:50:32.196Z,3.90
2018-02-02T17:53:02.157Z,4.00
2018-02-02T17:55:31.643Z,3.60
2018-02-02T17:58:01.565Z,3.00
2018-02-02T18:00:34.734Z,3.63
2018-02-02T18:03:10.565Z,3.83
2018-02-02T18:05:39.964Z,3.50
2018-02-02T18:08:09.703Z,3.30
2018-02-02T18:10:39.523Z,4.03
2018-02-02T18:13:09.161Z,3.53
2018-02-02T18:15:39.096Z,3.63
2018-02-02T18:18:09.035Z,5.60
2018-02-02T18:20:39.418Z,6.00
2018-02-02T18:23:08.655Z,4.13
2018-02-02T18:25:38.071Z,4.60
2018-02-02T18:28:07.474Z,5.00
2018-02-02T18:30:37.369Z,3.97
2018-02-02T18:33:06.999Z,4.10
2018-02-02T18:35:36.424Z,4.73
2018-02-02T18:38:05.980Z,3.70
2018-02-02T18:40:35.652Z,3.60
2018-02-02T18:43:05.133Z,4.40
2018-02-02T18:45:34.643Z,4.10
2018-02-02T18:48:04.365Z,3.20
2018-02-02T18:50:34.197Z,3.47
2018-02-02T18:53:03.558Z,3.33
2018-02-02T18:55:33.076Z,4.10
2018-02-02T18:58:02.735Z,4.57
2018-02-02T19:00:32.283Z,3.77
2018-02-02T19:03:02.101Z,4.07
2018-02-02T19:05:32.196Z,4.93
2018-02-02T19:08:01.740Z,6.00
2018-02-02T19:10:31.378Z,5.77
2018-02-02T19:13:00.946Z,5.00
2018-02-02T19:15:32.779Z,5.63
2018-02-02T19:18:02.643Z,4.93
2018-02-02T19:20:32.042Z,5.93
2018-02-02T19:23:01.357Z,6.67
2018-02-02T19:25:30.753Z,5.40
2018-02-02T19:28:00.142Z,4.97
2018-02-02T19:30:30.344Z,5.27
2018-02-02T19:32:59.873Z,5.40
2018-02-02T19:35:29.567Z,5.87
2018-02-02T19:37:59.071Z,6.27
2018-02-02T19:40:28.878Z,5.70
2018-02-02T19:42:58.653Z,5.13
2018-02-02T19:45:28.061Z,6.27
2018-02-02T19:47:57.718Z,4.90
2018-02-02T19:50:27.067Z,5.50
2018-02-02T19:52:56.493Z,5.27
2018-02-02T19:55:26.169Z,5.03
2018-02-02T19:57:57.910Z,5.40
2018-02-02T20:00:27.455Z,5.30
2018-02-02T20:02:56.888Z,6.17
2018-02-02T20:05:26.165Z,4.93
2018-02-02T20:07:55.876Z,5.33
2018-02-02T20:10:25.828Z,4.67
2018-02-02T20:12:55.663Z,5.60
2018-02-02T20:15:25.028Z,4.27
2018-02-02T20:17:54.871Z,5.23
2018-02-02T20:20:24.341Z,5.70
2018-02-02T20:22:53.903Z,6.03
2018-02-02T20:25:23.778Z,7.23
2018-02-02T20:27:53.203Z,5.50
2018-02-02T20:30:23.589Z,6.03
2018-02-02T20:32:53.742Z,6.20
2018-02-02T20:35:23.578Z,4.73
2018-02-02T20:37:52.860Z,4.73
2018-02-02T20:53:14.801Z,5.20
2018-02-02T20:55:44.258Z,5.93
2018-02-02T20:58:15.020Z,6.20
2018-02-02T21:00:44.539Z,6.20
2018-02-02T21:03:13.936Z,6.20
2018-02-02T21:05:43.223Z,6.47
2018-02-02T21:08:12.638Z,7.00
2018-02-02T21:10:42.303Z,7.20
2018-02-02T21:13:12.146Z,6.20
2018-02-02T21:15:41.547Z,6.03
2018-02-02T21:18:11.163Z,6.27
2018-02-02T21:20:40.928Z,7.20
2018-02-02T21:23:10.396Z,6.70
2018-02-02T21:25:39.684Z,6.53
2018-02-02T21:28:09.323Z,6.33
2018-02-02T21:30:38.977Z,6.87
2018-02-02T21:33:08.629Z,8.07
2018-02-02T21:35:38.731Z,8.27
2018-02-02T21:38:08.168Z,8.17
2018-02-02T21:40:37.971Z,7.57
2018-02-02T21:43:08.218Z,6.27
2018-02-02T21:45:37.742Z,5.60
2018-02-02T21:48:07.298Z,6.47
2018-02-02T21:50:36.710Z,6.23
2018-02-02T21:53:06.574Z,6.30
2018-02-02T21:55:36.268Z,6.17
2018-02-02T21:58:05.562Z,7.17
2018-02-02T22:00:35.043Z,5.53
2018-02-02T22:03:04.491Z,5.50
2018-02-02T22:05:34.426Z,6.97
2018-02-02T22:08:03.953Z,6.03
2018-02-02T22:10:33.425Z,6.57
2018-02-02T22:13:02.735Z,5.97
2018-02-02T22:15:32.326Z,5.90
2018-02-02T22:18:01.732Z,5.00
2018-02-02T22:20:30.961Z,5.03
2018-02-02T22:23:00.495Z,6.00
2018-02-02T22:25:29.854Z,4.90
2018-02-02T22:27:59.267Z,4.50
2018-02-02T22:30:28.804Z,5.10
2018-02-02T22:32:58.291Z,4.50
2018-02-02T22:35:27.762Z,5.10
2018-02-02T22:37:57.547Z,4.67
2018-02-02T22:40:26.824Z,5.07
2018-02-02T22:42:56.576Z,5.43
2018-02-02T22:45:26.140Z,5.30
2018-02-02T22:47:55.380Z,5.73
2018-02-02T22:50:24.739Z,4.87
2018-02-02T22:52:54.238Z,5.33
2018-02-02T22:55:23.929Z,4.80
2018-02-02T22:57:53.507Z,4.60
2018-02-02T23:00:22.762Z,4.33
2018-02-02T23:02:52.476Z,4.37
2018-02-02T23:05:21.837Z,4.97
2018-02-02T23:07:51.401Z,5.20
2018-02-02T23:10:20.797Z,4.50
2018-02-02T23:12:50.472Z,5.10
2018-02-02T23:15:19.922Z,4.77
2018-02-02T23:17:49.269Z,5.63
2018-02-02T23:20:19.555Z,5.40
2018-02-02T23:22:49.160Z,5.37
2018-02-02T23:25:18.639Z,4.30
2018-02-02T23:27:48.106Z,5.23
2018-02-02T23:30:18.148Z,5.17
2018-02-02T23:32:47.401Z,4.97
2018-02-02T23:35:16.837Z,4.70
2018-02-02T23:37:46.107Z,4.83
2018-02-02T23:40:15.515Z,5.10
2018-02-02T23:42:44.910Z,4.37
2018-02-02T23:45:14.909Z,4.47
2018-02-02T23:47:45.085Z,8.93
2018-02-02T23:50:14.479Z,6.03
2018-02-02T23:52:43.750Z,4.13
2018-02-02T23:55:13.154Z,4.60
2018-02-02T23:57:42.393Z,4.63
